sensor_id;sensor_type;location;lat;lon;timestamp;P1;durP1;ratioP1;P2;durP2;ratioP2
35245;SDS011;21379;50.962;6.960;2024-02-21T00:05:22;11.10;;;3.35;;
35245;SDS011;21379;50.962;6.960;2024-02-21T00:11:45;9.40;;;3.78;;
35245;SDS011;21379;50.962;6.960;2024-02-21T00:14:15;10.10;;;3.47;;
35245;SDS011;21379;50.962;6.960;2024-02-21T00:16:48;13.10;;;3.92;;
35245;SDS011;21379;50.962;6.960;2024-02-21T00:19:20;10.50;;;3.60;;
35245;SDS011;21379;50.962;6.960;2024-02-21T00:21:48;9.88;;;3.28;;
35245;SDS011;21379;50.962;6.960;2024-02-21T00:24:23;10.73;;;3.45;;
35245;SDS011;21379;50.962;6.960;2024-02-21T00:26:53;7.75;;;3.75;;
35245;SDS011;21379;50.962;6.960;2024-02-21T00:29:20;13.98;;;4.10;;
35245;SDS011;21379;50.962;6.960;2024-02-21T00:31:51;9.95;;;3.47;;
35245;SDS011;21379;50.962;6.960;2024-02-21T00:34:21;13.90;;;4.40;;
35245;SDS011;21379;50.962;6.960;2024-02-21T00:36:52;11.95;;;3.50;;
35245;SDS011;21379;50.962;6.960;2024-02-21T00:39:21;10.70;;;3.63;;
35245;SDS011;21379;50.962;6.960;2024-02-21T00:41:48;8.52;;;3.20;;
35245;SDS011;21379;50.962;6.960;2024-02-21T00:44:15;11.52;;;3.80;;
35245;SDS011;21379;50.962;6.960;2024-02-21T00:46:41;13.15;;;4.65;;
35245;SDS011;21379;50.962;6.960;2024-02-21T00:49:08;11.05;;;3.47;;
35245;SDS011;21379;50.962;6.960;2024-02-21T00:51:38;15.25;;;4.18;;
35245;SDS011;21379;50.962;6.960;2024-02-21T00:54:11;13.00;;;3.30;;
35245;SDS011;21379;50.962;6.960;2024-02-21T00:56:40;11.02;;;3.95;;
35245;SDS011;21379;50.962;6.960;2024-02-21T00:59:06;13.55;;;4.28;;
35245;SDS011;21379;50.962;6.960;2024-02-21T01:01:33;9.73;;;3.85;;
35245;SDS011;21379;50.962;6.960;2024-02-21T01:04:01;11.68;;;3.65;;
35245;SDS011;21379;50.962;6.960;2024-02-21T01:06:28;10.77;;;3.83;;
35245;SDS011;21379;50.962;6.960;2024-02-21T01:09:05;13.43;;;4.28;;
35245;SDS011;21379;50.962;6.960;2024-02-21T01:11:36;18.02;;;4.35;;
35245;SDS011;21379;50.962;6.960;2024-02-21T01:14:04;14.80;;;3.70;;
35245;SDS011;21379;50.962;6.960;2024-02-21T01:16:31;10.18;;;4.32;;
35245;SDS011;21379;50.962;6.960;2024-02-21T01:19:00;8.90;;;3.78;;
35245;SDS011;21379;50.962;6.960;2024-02-21T01:21:30;10.32;;;3.72;;
35245;SDS011;21379;50.962;6.960;2024-02-21T01:24:00;9.32;;;3.20;;
35245;SDS011;21379;50.962;6.960;2024-02-21T01:26:27;14.48;;;3.97;;
35245;SDS011;21379;50.962;6.960;2024-02-21T01:28:57;9.93;;;3.88;;
35245;SDS011;21379;50.962;6.960;2024-02-21T01:31:30;10.05;;;4.10;;
35245;SDS011;21379;50.962;6.960;2024-02-21T01:33:57;9.68;;;3.30;;
35245;SDS011;21379;50.962;6.960;2024-02-21T01:36:27;10.05;;;3.95;;
35245;SDS011;21379;50.962;6.960;2024-02-21T01:38:53;12.30;;;3.70;;
35245;SDS011;21379;50.962;6.960;2024-02-21T01:41:24;15.40;;;3.88;;
35245;SDS011;21379;50.962;6.960;2024-02-21T01:43:52;9.77;;;3.30;;
35245;SDS011;21379;50.962;6.960;2024-02-21T01:46:22;11.98;;;3.90;;
35245;SDS011;21379;50.962;6.960;2024-02-21T01:48:55;9.65;;;3.95;;
35245;SDS011;21379;50.962;6.960;2024-02-21T01:51:25;13.77;;;4.05;;
35245;SDS011;21379;50.962;6.960;2024-02-21T01:53:52;12.82;;;3.88;;
35245;SDS011;21379;50.962;6.960;2024-02-21T01:56:22;10.35;;;3.58;;
35245;SDS011;21379;50.962;6.960;2024-02-21T01:58:48;16.65;;;4.28;;
35245;SDS011;21379;50.962;6.960;2024-02-21T02:01:18;17.05;;;4.97;;
35245;SDS011;21379;50.962;6.960;2024-02-21T02:03:48;14.30;;;4.97;;
35245;SDS011;21379;50.962;6.960;2024-02-21T02:06:18;13.88;;;4.35;;
35245;SDS011;21379;50.962;6.960;2024-02-21T02:08:45;11.02;;;4.45;;
35245;SDS011;21379;50.962;6.960;2024-02-21T02:11:13;12.30;;;4.15;;
35245;SDS011;21379;50.962;6.960;2024-02-21T02:13:42;12.55;;;3.55;;
35245;SDS011;21379;50.962;6.960;2024-02-21T02:16:09;10.48;;;3.95;;
35245;SDS011;21379;50.962;6.960;2024-02-21T02:18:40;12.95;;;4.55;;
35245;SDS011;21379;50.962;6.960;2024-02-21T02:21:13;11.63;;;3.58;;
35245;SDS011;21379;50.962;6.960;2024-02-21T02:23:56;14.23;;;3.97;;
35245;SDS011;21379;50.962;6.960;2024-02-21T02:26:29;14.38;;;5.10;;
35245;SDS011;21379;50.962;6.960;2024-02-21T02:28:56;16.27;;;4.53;;
35245;SDS011;21379;50.962;6.960;2024-02-21T02:31:23;14.73;;;4.20;;
35245;SDS011;21379;50.962;6.960;2024-02-21T02:33:50;11.65;;;4.65;;
35245;SDS011;21379;50.962;6.960;2024-02-21T02:36:16;11.18;;;3.90;;
35245;SDS011;21379;50.962;6.960;2024-02-21T02:38:45;9.57;;;3.35;;
35245;SDS011;21379;50.962;6.960;2024-02-21T02:41:18;10.18;;;4.20;;
35245;SDS011;21379;50.962;6.960;2024-02-21T02:43:50;11.18;;;3.80;;
35245;SDS011;21379;50.962;6.960;2024-02-21T02:46:16;11.48;;;3.63;;
35245;SDS011;21379;50.962;6.960;2024-02-21T02:48:44;8.15;;;3.83;;
35245;SDS011;21379;50.962;6.960;2024-02-21T02:51:14;13.43;;;3.88;;
35245;SDS011;21379;50.962;6.960;2024-02-21T02:53:43;10.23;;;3.58;;
35245;SDS011;21379;50.962;6.960;2024-02-21T02:56:22;11.95;;;3.85;;
35245;SDS011;21379;50.962;6.960;2024-02-21T02:58:50;11.23;;;3.97;;
35245;SDS011;21379;50.962;6.960;2024-02-21T03:01:17;14.55;;;4.03;;
35245;SDS011;21379;50.962;6.960;2024-02-21T03:03:43;13.50;;;4.40;;
35245;SDS011;21379;50.962;6.960;2024-02-21T03:06:17;14.48;;;4.50;;
35245;SDS011;21379;50.962;6.960;2024-02-21T03:08:44;11.30;;;3.88;;
35245;SDS011;21379;50.962;6.960;2024-02-21T03:11:11;10.57;;;3.55;;
35245;SDS011;21379;50.962;6.960;2024-02-21T03:13:44;10.50;;;3.40;;
35245;SDS011;21379;50.962;6.960;2024-02-21T03:16:11;11.15;;;3.80;;
35245;SDS011;21379;50.962;6.960;2024-02-21T03:18:37;8.68;;;3.70;;
35245;SDS011;21379;50.962;6.960;2024-02-21T03:31:29;11.75;;;3.75;;
35245;SDS011;21379;50.962;6.960;2024-02-21T03:33:56;7.65;;;3.33;;
35245;SDS011;21379;50.962;6.960;2024-02-21T03:36:22;10.13;;;3.85;;
35245;SDS011;21379;50.962;6.960;2024-02-21T03:38:49;10.77;;;3.22;;
35245;SDS011;21379;50.962;6.960;2024-02-21T03:41:16;12.10;;;3.33;;
35245;SDS011;21379;50.962;6.960;2024-02-21T03:43:42;9.23;;;3.13;;
35245;SDS011;21379;50.962;6.960;2024-02-21T03:46:09;11.93;;;3.58;;
35245;SDS011;21379;50.962;6.960;2024-02-21T03:48:37;14.20;;;3.38;;
35245;SDS011;21379;50.962;6.960;2024-02-21T03:51:04;8.95;;;3.40;;
35245;SDS011;21379;50.962;6.960;2024-02-21T03:53:30;9.80;;;3.15;;
35245;SDS011;21379;50.962;6.960;2024-02-21T03:55:57;11.15;;;3.38;;
35245;SDS011;21379;50.962;6.960;2024-02-21T03:58:28;11.88;;;3.78;;
35245;SDS011;21379;50.962;6.960;2024-02-21T04:00:54;12.20;;;3.08;;
35245;SDS011;21379;50.962;6.960;2024-02-21T04:03:21;10.30;;;3.65;;
35245;SDS011;21379;50.962;6.960;2024-02-21T04:05:49;11.23;;;3.20;;
35245;SDS011;21379;50.962;6.960;2024-02-21T04:08:16;10.35;;;3.30;;
35245;SDS011;21379;50.962;6.960;2024-02-21T04:10:42;13.23;;;3.25;;
35245;SDS011;21379;50.962;6.960;2024-02-21T04:13:09;9.25;;;3.63;;
35245;SDS011;21379;50.962;6.960;2024-02-21T04:15:36;10.93;;;3.20;;
35245;SDS011;21379;50.962;6.960;2024-02-21T04:18:02;10.77;;;3.70;;
35245;SDS011;21379;50.962;6.960;2024-02-21T04:20:29;10.60;;;2.95;;
35245;SDS011;21379;50.962;6.960;2024-02-21T04:22:57;17.33;;;4.40;;
35245;SDS011;21379;50.962;6.960;2024-02-21T04:25:24;8.88;;;3.70;;
35245;SDS011;21379;50.962;6.960;2024-02-21T04:27:51;14.13;;;3.55;;
35245;SDS011;21379;50.962;6.960;2024-02-21T04:30:18;11.05;;;3.75;;
35245;SDS011;21379;50.962;6.960;2024-02-21T04:32:45;11.63;;;4.18;;
35245;SDS011;21379;50.962;6.960;2024-02-21T04:35:11;10.45;;;4.53;;
35245;SDS011;21379;50.962;6.960;2024-02-21T04:37:38;9.93;;;3.63;;
35245;SDS011;21379;50.962;6.960;2024-02-21T04:40:07;9.90;;;4.00;;
35245;SDS011;21379;50.962;6.960;2024-02-21T04:42:37;13.02;;;3.63;;
35245;SDS011;21379;50.962;6.960;2024-02-21T04:45:07;11.57;;;3.67;;
35245;SDS011;21379;50.962;6.960;2024-02-21T04:47:34;9.38;;;3.60;;
35245;SDS011;21379;50.962;6.960;2024-02-21T04:50:01;10.55;;;3.67;;
35245;SDS011;21379;50.962;6.960;2024-02-21T04:52:27;9.77;;;3.88;;
35245;SDS011;21379;50.962;6.960;2024-02-21T04:54:54;10.02;;;3.92;;
35245;SDS011;21379;50.962;6.960;2024-02-21T04:57:22;13.18;;;4.63;;
35245;SDS011;21379;50.962;6.960;2024-02-21T04:59:50;12.38;;;3.58;;
35245;SDS011;21379;50.962;6.960;2024-02-21T05:02:17;9.27;;;3.25;;
35245;SDS011;21379;50.962;6.960;2024-02-21T05:04:44;10.18;;;3.67;;
35245;SDS011;21379;50.962;6.960;2024-02-21T05:07:11;8.23;;;3.20;;
35245;SDS011;21379;50.962;6.960;2024-02-21T05:09:37;9.10;;;3.25;;
35245;SDS011;21379;50.962;6.960;2024-02-21T05:12:04;11.05;;;3.90;;
35245;SDS011;21379;50.962;6.960;2024-02-21T05:14:33;11.63;;;3.35;;
35245;SDS011;21379;50.962;6.960;2024-02-21T05:16:59;12.45;;;4.32;;
35245;SDS011;21379;50.962;6.960;2024-02-21T05:19:26;13.23;;;3.83;;
35245;SDS011;21379;50.962;6.960;2024-02-21T05:21:53;8.93;;;2.90;;
35245;SDS011;21379;50.962;6.960;2024-02-21T05:24:19;10.75;;;3.35;;
35245;SDS011;21379;50.962;6.960;2024-02-21T05:26:46;9.80;;;3.42;;
35245;SDS011;21379;50.962;6.960;2024-02-21T05:29:13;11.38;;;3.15;;
35245;SDS011;21379;50.962;6.960;2024-02-21T05:31:55;9.18;;;3.50;;
35245;SDS011;21379;50.962;6.960;2024-02-21T05:34:22;11.02;;;3.80;;
35245;SDS011;21379;50.962;6.960;2024-02-21T05:36:49;8.00;;;3.00;;
35245;SDS011;21379;50.962;6.960;2024-02-21T05:39:15;13.13;;;3.70;;
35245;SDS011;21379;50.962;6.960;2024-02-21T05:41:43;12.02;;;4.10;;
35245;SDS011;21379;50.962;6.960;2024-02-21T05:44:10;10.50;;;3.50;;
35245;SDS011;21379;50.962;6.960;2024-02-21T05:46:36;11.90;;;3.03;;
35245;SDS011;21379;50.962;6.960;2024-02-21T05:49:04;12.02;;;3.28;;
35245;SDS011;21379;50.962;6.960;2024-02-21T05:51:32;7.13;;;3.10;;
35245;SDS011;21379;50.962;6.960;2024-02-21T05:53:58;9.10;;;2.97;;
35245;SDS011;21379;50.962;6.960;2024-02-21T05:56:25;5.32;;;2.83;;
35245;SDS011;21379;50.962;6.960;2024-02-21T05:58:52;10.68;;;3.75;;
35245;SDS011;21379;50.962;6.960;2024-02-21T06:01:19;9.50;;;3.10;;
35245;SDS011;21379;50.962;6.960;2024-02-21T06:03:46;7.55;;;2.80;;
35245;SDS011;21379;50.962;6.960;2024-02-21T06:06:14;9.35;;;2.60;;
35245;SDS011;21379;50.962;6.960;2024-02-21T06:08:41;10.07;;;3.03;;
35245;SDS011;21379;50.962;6.960;2024-02-21T06:11:08;7.25;;;3.00;;
35245;SDS011;21379;50.962;6.960;2024-02-21T06:13:37;8.00;;;3.53;;
35245;SDS011;21379;50.962;6.960;2024-02-21T06:16:05;8.15;;;3.28;;
35245;SDS011;21379;50.962;6.960;2024-02-21T06:18:32;10.57;;;2.85;;
35245;SDS011;21379;50.962;6.960;2024-02-21T06:21:01;11.30;;;4.18;;
35245;SDS011;21379;50.962;6.960;2024-02-21T06:23:29;10.32;;;3.25;;
35245;SDS011;21379;50.962;6.960;2024-02-21T06:25:55;10.00;;;3.53;;
35245;SDS011;21379;50.962;6.960;2024-02-21T06:28:22;9.88;;;4.00;;
35245;SDS011;21379;50.962;6.960;2024-02-21T06:30:49;10.30;;;3.78;;
35245;SDS011;21379;50.962;6.960;2024-02-21T06:33:15;9.27;;;3.53;;
35245;SDS011;21379;50.962;6.960;2024-02-21T06:35:42;9.60;;;3.78;;
35245;SDS011;21379;50.962;6.960;2024-02-21T06:38:12;9.90;;;3.20;;
35245;SDS011;21379;50.962;6.960;2024-02-21T06:40:40;10.23;;;3.42;;
35245;SDS011;21379;50.962;6.960;2024-02-21T06:43:07;8.93;;;3.33;;
35245;SDS011;21379;50.962;6.960;2024-02-21T06:45:34;11.77;;;3.80;;
35245;SDS011;21379;50.962;6.960;2024-02-21T06:48:00;12.00;;;3.70;;
35245;SDS011;21379;50.962;6.960;2024-02-21T06:50:27;9.57;;;3.20;;
35245;SDS011;21379;50.962;6.960;2024-02-21T06:52:54;8.77;;;2.95;;
35245;SDS011;21379;50.962;6.960;2024-02-21T06:55:20;6.63;;;3.30;;
35245;SDS011;21379;50.962;6.960;2024-02-21T06:57:48;10.30;;;3.10;;
35245;SDS011;21379;50.962;6.960;2024-02-21T07:00:16;8.60;;;3.35;;
35245;SDS011;21379;50.962;6.960;2024-02-21T07:07:36;11.43;;;2.65;;
35245;SDS011;21379;50.962;6.960;2024-02-21T07:10:03;6.38;;;2.80;;
35245;SDS011;21379;50.962;6.960;2024-02-21T07:12:30;10.80;;;3.22;;
35245;SDS011;21379;50.962;6.960;2024-02-21T07:14:58;11.25;;;3.42;;
35245;SDS011;21379;50.962;6.960;2024-02-21T07:17:25;8.68;;;3.47;;
35245;SDS011;21379;50.962;6.960;2024-02-21T07:19:51;6.07;;;2.67;;
35245;SDS011;21379;50.962;6.960;2024-02-21T07:22:22;5.93;;;2.50;;
35245;SDS011;21379;50.962;6.960;2024-02-21T07:24:48;9.10;;;3.10;;
35245;SDS011;21379;50.962;6.960;2024-02-21T07:27:15;5.95;;;2.45;;
35245;SDS011;21379;50.962;6.960;2024-02-21T07:32:14;6.53;;;2.67;;
35245;SDS011;21379;50.962;6.960;2024-02-21T07:37:07;6.80;;;2.28;;
35245;SDS011;21379;50.962;6.960;2024-02-21T07:39:35;7.38;;;2.60;;
35245;SDS011;21379;50.962;6.960;2024-02-21T07:42:02;10.20;;;2.75;;
35245;SDS011;21379;50.962;6.960;2024-02-21T07:44:29;11.98;;;2.33;;
35245;SDS011;21379;50.962;6.960;2024-02-21T07:46:56;7.50;;;2.92;;
35245;SDS011;21379;50.962;6.960;2024-02-21T07:49:25;7.82;;;2.75;;
35245;SDS011;21379;50.962;6.960;2024-02-21T07:51:51;7.00;;;2.33;;
35245;SDS011;21379;50.962;6.960;2024-02-21T07:54:18;10.55;;;2.95;;
35245;SDS011;21379;50.962;6.960;2024-02-21T07:56:45;7.45;;;2.45;;
35245;SDS011;21379;50.962;6.960;2024-02-21T07:59:15;6.57;;;2.58;;
35245;SDS011;21379;50.962;6.960;2024-02-21T08:01:41;8.93;;;2.60;;
35245;SDS011;21379;50.962;6.960;2024-02-21T08:06:37;11.57;;;3.53;;
35245;SDS011;21379;50.962;6.960;2024-02-21T08:13:57;7.57;;;2.53;;
35245;SDS011;21379;50.962;6.960;2024-02-21T08:16:24;5.57;;;2.20;;
35245;SDS011;21379;50.962;6.960;2024-02-21T08:18:51;6.45;;;2.33;;
35245;SDS011;21379;50.962;6.960;2024-02-21T08:21:17;10.90;;;3.22;;
35245;SDS011;21379;50.962;6.960;2024-02-21T08:23:45;10.20;;;2.47;;
35245;SDS011;21379;50.962;6.960;2024-02-21T08:26:16;8.02;;;2.60;;
35245;SDS011;21379;50.962;6.960;2024-02-21T08:28:43;9.20;;;2.75;;
35245;SDS011;21379;50.962;6.960;2024-02-21T08:31:10;9.18;;;2.72;;
35245;SDS011;21379;50.962;6.960;2024-02-21T08:33:36;6.28;;;2.58;;
35245;SDS011;21379;50.962;6.960;2024-02-21T08:36:03;10.10;;;2.85;;
35245;SDS011;21379;50.962;6.960;2024-02-21T08:38:30;12.80;;;3.45;;
35245;SDS011;21379;50.962;6.960;2024-02-21T08:41:00;7.43;;;2.60;;
35245;SDS011;21379;50.962;6.960;2024-02-21T08:48:19;8.35;;;2.65;;
35245;SDS011;21379;50.962;6.960;2024-02-21T08:50:46;6.20;;;2.30;;
35245;SDS011;21379;50.962;6.960;2024-02-21T08:53:12;11.05;;;3.30;;
35245;SDS011;21379;50.962;6.960;2024-02-21T08:55:39;9.48;;;2.70;;
35245;SDS011;21379;50.962;6.960;2024-02-21T08:58:07;9.25;;;2.83;;
35245;SDS011;21379;50.962;6.960;2024-02-21T09:05:27;10.45;;;2.90;;
35245;SDS011;21379;50.962;6.960;2024-02-21T09:07:54;11.43;;;3.05;;
35245;SDS011;21379;50.962;6.960;2024-02-21T09:10:21;9.77;;;2.65;;
35245;SDS011;21379;50.962;6.960;2024-02-21T09:12:47;8.98;;;2.33;;
35245;SDS011;21379;50.962;6.960;2024-02-21T09:15:16;9.52;;;2.67;;
35245;SDS011;21379;50.962;6.960;2024-02-21T09:17:43;9.25;;;2.08;;
35245;SDS011;21379;50.962;6.960;2024-02-21T09:20:10;8.13;;;2.63;;
35245;SDS011;21379;50.962;6.960;2024-02-21T09:22:37;12.05;;;3.15;;
35245;SDS011;21379;50.962;6.960;2024-02-21T09:25:05;10.50;;;2.60;;
35245;SDS011;21379;50.962;6.960;2024-02-21T09:27:32;7.93;;;2.53;;
35245;SDS011;21379;50.962;6.960;2024-02-21T09:29:59;7.25;;;2.50;;
35245;SDS011;21379;50.962;6.960;2024-02-21T09:32:28;5.75;;;2.47;;
35245;SDS011;21379;50.962;6.960;2024-02-21T09:34:54;17.73;;;3.30;;
35245;SDS011;21379;50.962;6.960;2024-02-21T09:37:21;7.78;;;2.60;;
35245;SDS011;21379;50.962;6.960;2024-02-21T09:39:48;10.82;;;2.60;;
35245;SDS011;21379;50.962;6.960;2024-02-21T09:42:16;8.13;;;2.58;;
35245;SDS011;21379;50.962;6.960;2024-02-21T09:44:46;7.53;;;1.95;;
35245;SDS011;21379;50.962;6.960;2024-02-21T09:47:16;6.15;;;2.10;;
35245;SDS011;21379;50.962;6.960;2024-02-21T09:49:46;6.70;;;2.50;;
35245;SDS011;21379;50.962;6.960;2024-02-21T09:52:14;9.43;;;2.58;;
35245;SDS011;21379;50.962;6.960;2024-02-21T09:54:41;7.50;;;2.75;;
35245;SDS011;21379;50.962;6.960;2024-02-21T09:57:10;7.25;;;2.20;;
35245;SDS011;21379;50.962;6.960;2024-02-21T09:59:37;8.13;;;2.38;;
35245;SDS011;21379;50.962;6.960;2024-02-21T10:02:04;7.35;;;2.20;;
35245;SDS011;21379;50.962;6.960;2024-02-21T10:04:31;9.43;;;2.83;;
35245;SDS011;21379;50.962;6.960;2024-02-21T10:06:59;10.63;;;2.30;;
35245;SDS011;21379;50.962;6.960;2024-02-21T10:09:26;8.48;;;2.70;;
35245;SDS011;21379;50.962;6.960;2024-02-21T10:11:54;7.63;;;2.50;;
35245;SDS011;21379;50.962;6.960;2024-02-21T10:14:21;6.82;;;1.85;;
35245;SDS011;21379;50.962;6.960;2024-02-21T10:16:48;7.18;;;2.45;;
35245;SDS011;21379;50.962;6.960;2024-02-21T10:19:23;5.97;;;1.95;;
35245;SDS011;21379;50.962;6.960;2024-02-21T10:22:01;5.57;;;2.45;;
35245;SDS011;21379;50.962;6.960;2024-02-21T10:24:28;8.30;;;2.20;;
35245;SDS011;21379;50.962;6.960;2024-02-21T10:26:58;8.48;;;2.17;;
35245;SDS011;21379;50.962;6.960;2024-02-21T10:29:26;8.35;;;2.53;;
35245;SDS011;21379;50.962;6.960;2024-02-21T10:32:03;5.45;;;2.08;;
35245;SDS011;21379;50.962;6.960;2024-02-21T10:34:30;15.52;;;2.67;;
35245;SDS011;21379;50.962;6.960;2024-02-21T10:37:00;7.45;;;2.33;;
35245;SDS011;21379;50.962;6.960;2024-02-21T10:39:28;6.50;;;2.00;;
35245;SDS011;21379;50.962;6.960;2024-02-21T10:41:55;11.02;;;2.70;;
35245;SDS011;21379;50.962;6.960;2024-02-21T10:44:26;8.75;;;2.00;;
35245;SDS011;21379;50.962;6.960;2024-02-21T10:46:55;4.20;;;2.03;;
35245;SDS011;21379;50.962;6.960;2024-02-21T10:49:22;8.88;;;2.10;;
35245;SDS011;21379;50.962;6.960;2024-02-21T10:51:52;5.07;;;2.00;;
35245;SDS011;21379;50.962;6.960;2024-02-21T10:54:28;5.68;;;2.25;;
35245;SDS011;21379;50.962;6.960;2024-02-21T10:57:00;9.85;;;2.38;;
35245;SDS011;21379;50.962;6.960;2024-02-21T10:59:28;7.35;;;2.05;;
35245;SDS011;21379;50.962;6.960;2024-02-21T11:01:57;12.30;;;2.38;;
35245;SDS011;21379;50.962;6.960;2024-02-21T11:04:24;5.05;;;1.77;;
35245;SDS011;21379;50.962;6.960;2024-02-21T11:06:51;7.22;;;2.03;;
35245;SDS011;21379;50.962;6.960;2024-02-21T11:09:18;7.07;;;1.80;;
35245;SDS011;21379;50.962;6.960;2024-02-21T11:11:46;8.27;;;1.98;;
35245;SDS011;21379;50.962;6.960;2024-02-21T11:14:17;8.30;;;2.17;;
35245;SDS011;21379;50.962;6.960;2024-02-21T11:16:45;6.72;;;2.03;;
35245;SDS011;21379;50.962;6.960;2024-02-21T11:19:18;4.05;;;1.80;;
35245;SDS011;21379;50.962;6.960;2024-02-21T11:21:47;6.90;;;1.63;;
35245;SDS011;21379;50.962;6.960;2024-02-21T11:24:14;5.75;;;1.80;;
35245;SDS011;21379;50.962;6.960;2024-02-21T11:26:53;4.72;;;1.50;;
35245;SDS011;21379;50.962;6.960;2024-02-21T11:29:22;6.03;;;2.00;;
35245;SDS011;21379;50.962;6.960;2024-02-21T11:31:50;7.60;;;2.03;;
35245;SDS011;21379;50.962;6.960;2024-02-21T11:34:17;8.00;;;1.80;;
35245;SDS011;21379;50.962;6.960;2024-02-21T11:39:18;8.30;;;2.00;;
35245;SDS011;21379;50.962;6.960;2024-02-21T11:42:00;4.50;;;2.20;;
35245;SDS011;21379;50.962;6.960;2024-02-21T11:44:29;6.18;;;2.22;;
35245;SDS011;21379;50.962;6.960;2024-02-21T11:46:55;6.88;;;1.77;;
35245;SDS011;21379;50.962;6.960;2024-02-21T11:49:24;5.75;;;1.92;;
35245;SDS011;21379;50.962;6.960;2024-02-21T11:51:57;7.05;;;2.00;;
35245;SDS011;21379;50.962;6.960;2024-02-21T11:54:24;10.00;;;2.50;;
35245;SDS011;21379;50.962;6.960;2024-02-21T11:56:51;4.38;;;1.58;;
35245;SDS011;21379;50.962;6.960;2024-02-21T11:59:19;6.30;;;1.83;;
35245;SDS011;21379;50.962;6.960;2024-02-21T12:01:46;6.60;;;1.95;;
35245;SDS011;21379;50.962;6.960;2024-02-21T12:04:13;7.38;;;1.63;;
35245;SDS011;21379;50.962;6.960;2024-02-21T12:06:39;5.40;;;1.75;;
35245;SDS011;21379;50.962;6.960;2024-02-21T12:09:07;3.05;;;1.55;;
35245;SDS011;21379;50.962;6.960;2024-02-21T12:11:34;7.13;;;1.75;;
35245;SDS011;21379;50.962;6.960;2024-02-21T12:14:01;5.85;;;1.65;;
35245;SDS011;21379;50.962;6.960;2024-02-21T12:16:30;4.90;;;1.80;;
35245;SDS011;21379;50.962;6.960;2024-02-21T12:18:57;7.47;;;1.77;;
35245;SDS011;21379;50.962;6.960;2024-02-21T12:21:24;6.05;;;1.83;;
35245;SDS011;21379;50.962;6.960;2024-02-21T12:23:53;6.30;;;1.73;;
35245;SDS011;21379;50.962;6.960;2024-02-21T12:26:20;4.60;;;1.60;;
35245;SDS011;21379;50.962;6.960;2024-02-21T12:28:46;6.82;;;1.70;;
35245;SDS011;21379;50.962;6.960;2024-02-21T12:31:13;6.68;;;1.42;;
35245;SDS011;21379;50.962;6.960;2024-02-21T12:36:09;6.68;;;1.90;;
35245;SDS011;21379;50.962;6.960;2024-02-21T12:38:36;4.07;;;1.83;;
35245;SDS011;21379;50.962;6.960;2024-02-21T12:41:03;5.75;;;1.73;;
35245;SDS011;21379;50.962;6.960;2024-02-21T12:43:29;4.18;;;1.75;;
35245;SDS011;21379;50.962;6.960;2024-02-21T12:45:57;6.72;;;1.98;;
35245;SDS011;21379;50.962;6.960;2024-02-21T12:48:23;4.90;;;1.63;;
35245;SDS011;21379;50.962;6.960;2024-02-21T12:50:51;5.30;;;1.90;;
35245;SDS011;21379;50.962;6.960;2024-02-21T12:53:18;7.47;;;2.00;;
35245;SDS011;21379;50.962;6.960;2024-02-21T12:55:46;9.68;;;2.10;;
35245;SDS011;21379;50.962;6.960;2024-02-21T12:58:13;3.85;;;1.80;;
35245;SDS011;21379;50.962;6.960;2024-02-21T13:00:40;6.55;;;1.88;;
35245;SDS011;21379;50.962;6.960;2024-02-21T13:03:07;5.38;;;1.58;;
35245;SDS011;21379;50.962;6.960;2024-02-21T13:05:35;4.82;;;1.50;;
35245;SDS011;21379;50.962;6.960;2024-02-21T13:08:03;6.25;;;1.70;;
35245;SDS011;21379;50.962;6.960;2024-02-21T13:10:30;3.83;;;1.70;;
35245;SDS011;21379;50.962;6.960;2024-02-21T13:15:25;6.07;;;1.90;;
35245;SDS011;21379;50.962;6.960;2024-02-21T13:17:53;8.57;;;2.33;;
35245;SDS011;21379;50.962;6.960;2024-02-21T13:20:19;7.10;;;1.80;;
35245;SDS011;21379;50.962;6.960;2024-02-21T13:22:46;5.68;;;1.70;;
35245;SDS011;21379;50.962;6.960;2024-02-21T13:25:14;7.43;;;2.50;;
35245;SDS011;21379;50.962;6.960;2024-02-21T13:27:43;4.78;;;2.25;;
35245;SDS011;21379;50.962;6.960;2024-02-21T13:30:10;7.72;;;2.08;;
35245;SDS011;21379;50.962;6.960;2024-02-21T13:32:37;7.45;;;1.70;;
35245;SDS011;21379;50.962;6.960;2024-02-21T13:35:04;7.53;;;1.75;;
35245;SDS011;21379;50.962;6.960;2024-02-21T13:37:31;3.83;;;1.80;;
35245;SDS011;21379;50.962;6.960;2024-02-21T13:39:58;5.22;;;1.55;;
35245;SDS011;21379;50.962;6.960;2024-02-21T13:42:26;5.82;;;1.63;;
35245;SDS011;21379;50.962;6.960;2024-02-21T13:44:53;7.30;;;2.25;;
35245;SDS011;21379;50.962;6.960;2024-02-21T13:47:20;3.78;;;1.63;;
35245;SDS011;21379;50.962;6.960;2024-02-21T13:49:47;10.82;;;2.08;;
35245;SDS011;21379;50.962;6.960;2024-02-21T13:52:14;2.78;;;1.40;;
35245;SDS011;21379;50.962;6.960;2024-02-21T13:54:42;6.35;;;2.00;;
35245;SDS011;21379;50.962;6.960;2024-02-21T13:57:09;3.85;;;1.42;;
35245;SDS011;21379;50.962;6.960;2024-02-21T13:59:37;5.47;;;1.77;;
35245;SDS011;21379;50.962;6.960;2024-02-21T14:02:04;10.50;;;1.92;;
35245;SDS011;21379;50.962;6.960;2024-02-21T14:04:32;13.73;;;2.45;;
35245;SDS011;21379;50.962;6.960;2024-02-21T14:06:59;6.22;;;1.95;;
35245;SDS011;21379;50.962;6.960;2024-02-21T14:09:25;5.00;;;1.83;;
35245;SDS011;21379;50.962;6.960;2024-02-21T14:11:54;7.53;;;1.77;;
35245;SDS011;21379;50.962;6.960;2024-02-21T14:14:20;5.40;;;1.67;;
35245;SDS011;21379;50.962;6.960;2024-02-21T14:16:48;10.40;;;2.25;;
35245;SDS011;21379;50.962;6.960;2024-02-21T14:19:15;4.75;;;1.58;;
35245;SDS011;21379;50.962;6.960;2024-02-21T14:21:42;6.65;;;1.58;;
35245;SDS011;21379;50.962;6.960;2024-02-21T14:24:10;5.72;;;2.45;;
35245;SDS011;21379;50.962;6.960;2024-02-21T14:26:38;5.00;;;1.63;;
35245;SDS011;21379;50.962;6.960;2024-02-21T14:29:06;3.70;;;1.67;;
35245;SDS011;21379;50.962;6.960;2024-02-21T14:31:33;7.72;;;1.92;;
35245;SDS011;21379;50.962;6.960;2024-02-21T14:34:02;11.75;;;1.92;;
35245;SDS011;21379;50.962;6.960;2024-02-21T14:36:29;3.92;;;1.75;;
35245;SDS011;21379;50.962;6.960;2024-02-21T14:38:55;6.80;;;1.88;;
35245;SDS011;21379;50.962;6.960;2024-02-21T14:41:22;3.40;;;1.35;;
35245;SDS011;21379;50.962;6.960;2024-02-21T14:43:49;7.95;;;2.00;;
35245;SDS011;21379;50.962;6.960;2024-02-21T14:46:16;5.53;;;1.83;;
35245;SDS011;21379;50.962;6.960;2024-02-21T14:48:43;5.90;;;1.85;;
35245;SDS011;21379;50.962;6.960;2024-02-21T14:51:12;7.18;;;1.77;;
35245;SDS011;21379;50.962;6.960;2024-02-21T14:53:38;5.65;;;1.92;;
35245;SDS011;21379;50.962;6.960;2024-02-21T14:56:05;5.03;;;1.70;;
35245;SDS011;21379;50.962;6.960;2024-02-21T14:58:39;5.13;;;1.85;;
35245;SDS011;21379;50.962;6.960;2024-02-21T15:01:06;5.72;;;1.80;;
35245;SDS011;21379;50.962;6.960;2024-02-21T15:03:33;2.80;;;1.70;;
35245;SDS011;21379;50.962;6.960;2024-02-21T15:06:00;5.75;;;2.33;;
35245;SDS011;21379;50.962;6.960;2024-02-21T15:08:29;5.85;;;1.90;;
35245;SDS011;21379;50.962;6.960;2024-02-21T15:10:57;7.25;;;1.70;;
35245;SDS011;21379;50.962;6.960;2024-02-21T15:13:23;5.85;;;1.70;;
35245;SDS011;21379;50.962;6.960;2024-02-21T15:15:50;5.78;;;1.48;;
35245;SDS011;21379;50.962;6.960;2024-02-21T15:18:18;4.13;;;1.20;;
35245;SDS011;21379;50.962;6.960;2024-02-21T15:20:44;4.78;;;1.52;;
35245;SDS011;21379;50.962;6.960;2024-02-21T15:23:12;5.85;;;1.60;;
35245;SDS011;21379;50.962;6.960;2024-02-21T15:25:40;3.00;;;1.45;;
35245;SDS011;21379;50.962;6.960;2024-02-21T15:28:08;5.10;;;1.67;;
35245;SDS011;21379;50.962;6.960;2024-02-21T15:30:35;6.93;;;1.60;;
35245;SDS011;21379;50.962;6.960;2024-02-21T15:33:02;4.07;;;1.73;;
35245;SDS011;21379;50.962;6.960;2024-02-21T15:35:29;6.18;;;1.50;;
35245;SDS011;21379;50.962;6.960;2024-02-21T15:37:57;5.25;;;1.70;;
35245;SDS011;21379;50.962;6.960;2024-02-21T15:40:23;5.68;;;1.30;;